Aérodrome :







RETROUVEZ-NOUS SUR...

 
LOGIN :

S'inscrire | Disclaimer

   EN    FR    IT 

 









Légende :    VFR   VFR Marginal   IFR   IFR Intensif   IFR Très Intensif
Visi : 
Plafond : 
>= 8 km
>= 3000ft
5 à 8 km
1000 à 3000 ft
1500m à 5 km
500 à 1000 ft
800 à 1500m
200 à 500 ft
< 800m
< 200 ft
Symboles :   Orages  Brouillard  Fortes neiges  Fortes précipitations  Vent > 20 kt






- Altitude de l'aérodrome : 133 ft
- Code IATA : BED


KBED - Laurence G Hanscom Field

DERNIER METAR :
  • 171151Z 35005KT 10SM SCT030 M07/M14 A3046 RMK AO2 SLP332 T10671144 11056 21072 58002

METARs EXPIRÉS :
  • 171051Z AUTO 35006KT 10SM CLR M07/M15 A3046 RMK AO2 SLP331 T10671150
  • 170951Z AUTO 36005KT 10SM CLR M07/M16 A3047 RMK AO2 SLP335 T10671156

TAF KBED
Valide du 17 à 12h jusqu'au 18 à 12h UTC


171121Z 1712/1812 35006KT P6SM SCT030 BKN035
FM171400 01007KT P6SM SCT030 BKN035
FM171900 06008KT P6SM BKN025
FM180500 02009KT P6SM VCSH OVC020
FM180600 01009KT P6SM VCSH OVC010
FM180800 01010G17KT P6SM VCSH OVC010



MET'MAP, la Météo Aéronautique d'un coup d'oeil ! - Copyright ORBIFLY Décembre 2007 - Disclaimer

ORBIFLY MET'MAP TEAM :

Programmation & Développement : Alexandra Zaïnal
Conception & Développement : Baudouin d'Aumeries
Co-Programmation & Développement : Marc-Olivier Méhu
Soutien technique & logistique : Manuel Goepfert

Contact : metmap@orbifly.com




SOURCES & CREDITS :

   NOAA